Time;durP1;ratioP1;P1;durP2;ratioP2;P2;SDS_P1;SDS_P2;PMS_P1;PMS_P2;Temp;Humidity;BMP_temperature;BMP_pressure;BME280_temperature;BME280_humidity;BME280_pressure;Samples;Min_cycle;Max_cycle;Signal;HPM_P1;HPM_P2
2022/06/18 00:00:30;;;;;;;7.60;5.80;;;;;;;16.74;57.68;94581.72;5030192;28;20426;-57
2022/06/18 00:02:57;;;;;;;7.30;5.65;;;;;;;16.71;57.87;94576.28;5030130;28;20050;-58
2022/06/18 00:05:24;;;;;;;7.38;6.03;;;;;;;16.47;58.64;94573.75;5018441;28;20434;-57
2022/06/18 00:07:56;;;;;;;8.87;5.60;;;;;;;16.48;58.60;94580.88;5044945;28;20334;-57
2022/06/18 00:10:27;;;;;;;7.00;5.10;;;;;;;16.47;58.45;94572.97;5049227;28;20454;-57
2022/06/18 00:15:58;;;;;;;7.85;5.55;;;;;;;16.46;58.33;94574.97;5048751;28;20417;-58
2022/06/18 00:18:25;;;;;;;8.35;5.53;;;;;;;16.47;58.33;94578.53;5044721;28;20041;-57
2022/06/18 00:20:52;;;;;;;7.67;5.70;;;;;;;16.48;58.70;94580.88;5030195;28;20049;-57
2022/06/18 00:23:19;;;;;;;7.00;5.72;;;;;;;16.46;58.40;94568.63;5030228;28;20057;-57
2022/06/18 00:25:49;;;;;;;7.88;5.97;;;;;;;16.45;58.61;94575.41;5029466;28;20063;-57
2022/06/18 00:28:19;;;;;;;8.73;6.00;;;;;;;16.40;58.87;94573.97;5047479;28;20049;-57
2022/06/18 00:30:47;;;;;;;7.88;5.93;;;;;;;16.40;59.19;94573.16;5049557;28;20055;-58
2022/06/18 00:33:14;;;;;;;7.37;6.00;;;;;;;16.22;59.76;94566.13;5048807;28;20041;-57
2022/06/18 00:35:43;;;;;;;7.40;6.20;;;;;;;16.22;59.99;94568.91;5049434;28;20083;-57
2022/06/18 00:38:19;;;;;;;8.48;6.43;;;;;;;16.20;60.14;94573.28;5049013;28;20409;-57
2022/06/18 00:40:45;;;;;;;8.65;6.30;;;;;;;16.14;60.29;94571.06;5049378;28;20405;-58
2022/06/18 00:43:55;;;;;;;7.82;6.50;;;;;;;16.13;60.41;94565.97;5052114;28;20129;-57
2022/06/18 00:46:35;;;;;;;9.50;7.07;;;;;;;15.82;61.65;94574.66;5010261;28;20053;-58
2022/06/18 00:49:35;;;;;;;8.55;6.25;;;;;;;15.64;62.25;94575.06;5025446;28;20050;-56
2022/06/18 00:52:43;;;;;;;8.52;6.03;;;;;;;15.74;61.89;94574.06;5042475;28;20041;-56
2022/06/18 00:55:25;;;;;;;9.80;6.50;;;;;;;15.86;61.74;94572.59;5014460;28;20570;-57
2022/06/18 00:58:08;;;;;;;9.23;6.05;;;;;;;15.87;61.68;94567.81;5033223;28;20049;-57
2022/06/18 01:00:42;;;;;;;9.70;6.40;;;;;;;15.88;61.45;94561.09;5036171;28;20046;-57
2022/06/18 01:03:25;;;;;;;8.02;6.20;;;;;;;15.88;61.33;94570.16;5029161;28;20045;-57
2022/06/18 01:05:54;;;;;;;8.40;6.28;;;;;;;15.88;61.22;94567.41;5033213;28;20064;-57
2022/06/18 01:08:24;;;;;;;8.38;6.40;;;;;;;15.80;61.60;94571.56;5032594;28;20049;-58
2022/06/18 01:10:58;;;;;;;16.02;11.45;;;;;;;15.69;61.88;94563.47;5033159;28;20052;-57
2022/06/18 01:13:32;;;;;;;9.27;6.30;;;;;;;15.57;62.43;94561.41;5032580;28;20068;-57
2022/06/18 01:16:00;;;;;;;7.45;6.10;;;;;;;15.57;62.42;94561.41;5032105;28;20044;-58
2022/06/18 01:18:28;;;;;;;8.27;6.03;;;;;;;15.54;62.36;94565.81;5026414;28;20082;-57
2022/06/18 01:21:04;;;;;;;7.95;6.00;;;;;;;15.53;62.25;94563.47;5040299;28;20057;-57
2022/06/18 01:23:36;;;;;;;7.40;5.47;;;;;;;15.55;62.01;94555.53;5039326;28;20858;-57
2022/06/18 01:26:03;;;;;;;7.87;5.80;;;;;;;15.45;62.39;94559.31;5032660;28;20041;-57
2022/06/18 01:28:30;;;;;;;9.15;5.90;;;;;;;15.41;62.85;94556.63;5052748;28;20417;-57
2022/06/18 01:30:57;;;;;;;9.10;6.00;;;;;;;15.45;62.83;94557.31;5052543;28;20098;-57
2022/06/18 01:33:24;;;;;;;8.18;6.00;;;;;;;15.47;62.57;94560.44;5052118;28;20415;-57
2022/06/18 01:35:53;;;;;;;7.53;5.65;;;;;;;15.33;63.05;94560.78;5033105;28;20498;-57
2022/06/18 01:38:23;;;;;;;7.50;6.03;;;;;;;15.12;64.11;94562.06;5042519;28;20045;-57
2022/06/18 01:40:55;;;;;;;7.72;6.15;;;;;;;14.97;64.78;94564.38;5052710;28;20417;-57
2022/06/18 01:43:24;;;;;;;12.02;7.88;;;;;;;14.81;65.55;94556.00;5052091;28;20503;-57
2022/06/18 01:45:59;;;;;;;10.13;7.25;;;;;;;14.86;65.37;94555.53;5048493;28;20401;-57
2022/06/18 01:48:36;;;;;;;10.25;7.00;;;;;;;14.89;65.15;94552.69;5023953;28;20048;-57
2022/06/18 01:51:10;;;;;;;9.47;6.70;;;;;;;14.97;64.91;94553.31;5040371;28;20052;-56
2022/06/18 01:53:43;;;;;;;9.93;7.30;;;;;;;15.06;64.34;94555.47;5051390;28;20063;-57
2022/06/18 01:56:16;;;;;;;8.63;6.90;;;;;;;15.02;64.32;94552.78;5049066;28;20048;-57
2022/06/18 01:59:16;;;;;;;10.15;6.95;;;;;;;15.04;64.20;94552.38;5038099;28;20049;-57
2022/06/18 02:01:45;;;;;;;10.93;7.30;;;;;;;14.89;64.89;94549.91;5022781;28;20161;-57
2022/06/18 02:04:16;;;;;;;9.17;6.50;;;;;;;14.78;65.72;94543.84;5024692;28;20065;-57
2022/06/18 02:06:48;;;;;;;9.48;6.70;;;;;;;14.76;65.66;94543.47;5031978;28;20045;-58
2022/06/18 02:09:39;;;;;;;11.15;7.10;;;;;;;14.80;65.47;94548.94;5031598;28;20052;-57
2022/06/18 02:12:12;;;;;;;11.15;6.60;;;;;;;14.71;65.97;94547.53;5031752;28;20037;-57
2022/06/18 02:14:42;;;;;;;8.75;6.82;;;;;;;14.65;66.44;94540.16;5032161;28;20033;-57
2022/06/18 02:17:17;;;;;;;11.37;8.37;;;;;;;14.56;66.62;94535.22;5031430;28;20057;-57
2022/06/18 02:19:52;;;;;;;10.48;7.18;;;;;;;14.61;66.64;94540.25;5032066;28;20172;-57
2022/06/18 02:22:23;;;;;;;9.57;7.32;;;;;;;14.68;66.25;94540.09;5031548;28;20047;-58
2022/06/18 02:24:49;;;;;;;11.73;7.20;;;;;;;14.67;66.33;94538.56;5031603;28;20042;-57
2022/06/18 02:27:16;;;;;;;9.75;6.90;;;;;;;14.38;67.11;94533.56;5031332;28;20040;-57
2022/06/18 02:29:44;;;;;;;9.80;6.83;;;;;;;14.09;68.44;94527.06;5031737;28;20046;-57
2022/06/18 02:32:21;;;;;;;9.52;6.97;;;;;;;14.06;68.62;94519.63;5031119;28;20071;-57
2022/06/18 02:34:48;;;;;;;11.45;7.30;;;;;;;14.22;68.08;94521.69;5031662;28;20045;-58
2022/06/18 02:37:22;;;;;;;25.13;7.18;;;;;;;14.29;67.80;94516.81;5030870;28;20046;-57
2022/06/18 02:39:56;;;;;;;8.93;6.38;;;;;;;14.28;67.35;94517.22;5031790;28;20438;-57
2022/06/18 02:42:24;;;;;;;9.87;6.63;;;;;;;14.27;67.76;94513.69;5031155;28;20056;-58
2022/06/18 02:44:51;;;;;;;9.05;6.88;;;;;;;14.17;67.99;94514.69;5045157;28;20053;-57
2022/06/18 02:47:20;;;;;;;10.80;6.75;;;;;;;14.07;68.75;94512.91;5034446;28;20383;-57
2022/06/18 02:49:56;;;;;;;9.32;7.00;;;;;;;14.13;68.70;94517.50;5036397;28;20413;-57
2022/06/18 02:52:27;;;;;;;9.68;7.07;;;;;;;14.15;68.44;94509.56;5032557;28;20644;-57
2022/06/18 02:55:00;;;;;;;11.00;6.30;;;;;;;14.19;67.85;94504.00;5035663;28;20046;-58
2022/06/18 02:57:28;;;;;;;7.97;6.35;;;;;;;14.24;67.61;94506.25;5050028;28;20648;-57
2022/06/18 02:59:55;;;;;;;8.00;6.60;;;;;;;14.27;67.53;94504.63;5050948;28;20459;-58
2022/06/18 03:02:22;;;;;;;8.82;6.68;;;;;;;14.27;67.34;94491.59;5050539;28;20488;-57
2022/06/18 03:04:48;;;;;;;8.77;6.70;;;;;;;14.19;67.61;94504.00;5050443;28;20049;-57
2022/06/18 03:07:15;;;;;;;8.73;6.77;;;;;;;14.08;68.31;94493.13;5050000;28;20491;-57
2022/06/18 03:12:27;;;;;;;10.00;7.28;;;;;;;14.00;68.26;94497.25;5050012;28;20440;-57
2022/06/18 03:14:54;;;;;;;11.23;6.93;;;;;;;13.90;68.82;94503.75;5036667;28;20047;-58
2022/06/18 03:17:21;;;;;;;8.65;7.00;;;;;;;13.93;68.61;94498.16;5041710;28;20042;-57
2022/06/18 03:19:58;;;;;;;9.97;6.97;;;;;;;13.77;69.31;94501.59;5042564;28;20420;-57
2022/06/18 03:22:24;;;;;;;8.95;6.57;;;;;;;13.79;68.92;94499.19;5050377;28;20448;-57
2022/06/18 03:24:51;;;;;;;10.35;6.75;;;;;;;13.76;69.16;94497.31;5050169;28;20557;-58
2022/06/18 03:27:18;;;;;;;9.68;6.68;;;;;;;13.78;69.21;94502.38;5049875;28;20044;-57
2022/06/18 03:29:46;;;;;;;8.73;6.82;;;;;;;13.60;69.93;94488.91;5050619;28;20059;-57
2022/06/18 03:32:13;;;;;;;8.83;6.80;;;;;;;13.34;70.74;94496.03;5049889;28;20455;-58
2022/06/18 03:34:40;;;;;;;8.68;6.88;;;;;;;13.49;70.53;94505.66;5050653;28;20053;-57
2022/06/18 03:37:07;;;;;;;8.77;6.85;;;;;;;13.71;69.65;94494.25;5049763;28;20056;-57
2022/06/18 03:39:34;;;;;;;10.45;6.72;;;;;;;13.88;68.71;94504.16;5050379;28;20450;-57
2022/06/18 03:42:02;;;;;;;8.43;6.25;;;;;;;13.99;68.54;94492.94;5049920;28;20056;-57
2022/06/18 03:44:29;;;;;;;9.57;6.80;;;;;;;13.94;68.40;94499.75;5024424;28;20616;-57
2022/06/18 03:46:56;;;;;;;8.88;6.18;;;;;;;14.06;68.26;94501.06;5023113;28;20383;-57
2022/06/18 03:49:26;;;;;;;9.32;6.53;;;;;;;14.19;67.79;94495.72;5029841;28;20041;-57
2022/06/18 03:51:55;;;;;;;8.25;6.18;;;;;;;14.42;66.87;94505.88;5028920;28;20088;-57
2022/06/18 03:54:22;;;;;;;9.20;6.40;;;;;;;14.52;66.34;94502.13;5029414;28;20092;-57
2022/06/18 03:56:49;;;;;;;9.67;6.53;;;;;;;14.48;66.81;94511.69;5030087;28;20382;-58
2022/06/18 03:59:16;;;;;;;10.10;6.90;;;;;;;14.61;66.13;94511.84;5039924;28;20047;-57
2022/06/18 04:01:43;;;;;;;10.65;6.57;;;;;;;14.77;65.71;94509.91;5049501;28;20126;-57
2022/06/18 04:04:12;;;;;;;8.18;6.38;;;;;;;14.87;65.22;94510.09;5049337;28;20044;-57
2022/06/18 04:06:41;;;;;;;8.85;6.50;;;;;;;15.01;64.81;94509.78;5049562;28;20049;-57
2022/06/18 04:09:08;;;;;;;8.37;6.30;;;;;;;15.14;64.14;94510.66;5049186;28;20052;-57
2022/06/18 04:11:36;;;;;;;9.93;6.15;;;;;;;15.23;63.74;94512.03;5049712;28;20037;-58
2022/06/18 04:14:03;;;;;;;9.23;6.43;;;;;;;15.21;63.81;94512.47;5049033;28;20056;-57
2022/06/18 04:16:31;;;;;;;9.13;6.63;;;;;;;15.20;63.85;94523.97;5049450;28;20037;-58
2022/06/18 04:18:57;;;;;;;10.93;6.78;;;;;;;15.37;63.32;94525.53;5041511;28;20114;-57
2022/06/18 04:21:24;;;;;;;8.37;6.17;;;;;;;15.51;63.00;94518.88;5042015;28;20049;-57
2022/06/18 04:23:51;;;;;;;8.73;6.60;;;;;;;15.73;62.30;94521.91;5049433;28;20052;-58
2022/06/18 04:26:18;;;;;;;9.20;6.82;;;;;;;15.76;62.14;94515.53;5048764;28;20059;-58
2022/06/18 04:28:46;;;;;;;8.35;6.57;;;;;;;16.50;59.85;94511.94;5049410;28;20091;-58
2022/06/18 04:31:13;;;;;;;10.13;6.53;;;;;;;16.96;59.33;94520.13;5049004;28;20044;-58
2022/06/18 04:33:40;;;;;;;9.07;6.77;;;;;;;17.52;57.30;94511.22;5049468;28;20115;-58
2022/06/18 04:36:36;;;;;;;9.57;6.30;;;;;;;18.41;55.06;94515.00;5048680;28;20399;-58
2022/06/18 04:39:03;;;;;;;7.95;6.90;;;;;;;18.37;54.20;94517.09;5049211;28;20053;-56
2022/06/18 04:41:30;;;;;;;8.68;6.72;;;;;;;18.26;54.96;94519.50;5047975;28;20041;-58
2022/06/18 04:43:58;;;;;;;9.13;6.80;;;;;;;17.77;55.85;94521.50;5049282;28;20055;-58
2022/06/18 04:46:25;;;;;;;10.03;6.50;;;;;;;17.90;55.91;94521.50;5048797;28;20051;-58
2022/06/18 04:48:52;;;;;;;9.15;6.90;;;;;;;17.76;56.18;94519.94;5049494;28;20049;-58
2022/06/18 04:51:18;;;;;;;8.00;7.10;;;;;;;17.48;57.04;94524.44;5048828;28;20406;-58
2022/06/18 04:53:45;;;;;;;9.85;7.03;;;;;;;17.64;56.93;94517.97;5049428;28;20037;-58
2022/06/18 04:56:12;;;;;;;8.70;7.20;;;;;;;17.61;56.82;94512.56;5048823;28;20051;-57
2022/06/18 04:58:39;;;;;;;9.40;6.83;;;;;;;17.37;57.64;94510.91;5049408;28;20037;-58
2022/06/18 05:01:07;;;;;;;15.05;7.20;;;;;;;16.92;59.22;94513.91;5048731;28;20041;-57
2022/06/18 05:03:33;;;;;;;8.18;6.75;;;;;;;17.10;59.00;94513.34;5049039;28;20041;-58
2022/06/18 05:06:00;;;;;;;7.82;6.55;;;;;;;17.22;58.56;94511.81;5049233;28;20041;-58
2022/06/18 05:08:27;;;;;;;8.88;6.80;;;;;;;17.31;58.41;94511.94;5048738;28;20040;-58
2022/06/18 05:10:54;;;;;;;8.60;6.50;;;;;;;17.33;58.19;94512.25;5049068;28;20041;-58
2022/06/18 05:13:21;;;;;;;8.25;6.40;;;;;;;17.42;58.12;94512.34;5048159;28;20056;-58
2022/06/18 05:15:51;;;;;;;7.88;6.57;;;;;;;18.36;55.34;94498.91;5048936;28;20051;-58
2022/06/18 05:18:20;;;;;;;7.15;6.38;;;;;;;19.79;51.59;94498.19;5045717;28;20049;-58
2022/06/18 05:20:49;;;;;;;7.88;6.40;;;;;;;20.74;48.72;94499.28;5038471;28;20053;-58
2022/06/18 05:23:16;;;;;;;7.37;6.27;;;;;;;22.45;44.90;94503.41;5048513;28;20401;-58
2022/06/18 05:25:43;;;;;;;7.35;6.18;;;;;;;23.55;41.54;94497.94;5046990;28;20055;-59
2022/06/18 05:28:12;;;;;;;8.70;6.35;;;;;;;23.23;42.87;94489.28;5048590;28;20057;-58
2022/06/18 05:30:40;;;;;;;7.53;6.10;;;;;;;23.62;41.49;94491.16;5051308;28;20040;-58
2022/06/18 05:33:07;;;;;;;8.07;6.28;;;;;;;24.27;40.17;94489.00;5051828;28;20041;-58
2022/06/18 05:35:36;;;;;;;6.63;5.60;;;;;;;24.82;39.06;94504.16;5052661;28;20045;-58
2022/06/18 05:38:03;;;;;;;7.03;5.45;;;;;;;25.79;37.09;94497.28;5050606;28;20067;-58
2022/06/18 05:40:29;;;;;;;6.72;5.47;;;;;;;24.82;38.66;94492.16;5052463;28;20693;-58
2022/06/18 05:42:56;;;;;;;7.32;5.82;;;;;;;24.50;39.34;94492.06;5052491;28;20055;-58
2022/06/18 05:45:23;;;;;;;6.45;5.72;;;;;;;24.67;39.03;94489.44;5052052;28;20054;-58
2022/06/18 05:47:50;;;;;;;6.53;5.70;;;;;;;26.05;36.99;94486.72;5052282;28;20502;-59
2022/06/18 05:50:19;;;;;;;7.28;5.85;;;;;;;26.98;35.78;94487.28;5051656;28;20095;-58
2022/06/18 05:52:45;;;;;;;7.28;6.05;;;;;;;27.05;35.30;94481.16;5052112;28;20123;-59
2022/06/18 05:55:12;;;;;;;7.93;5.70;;;;;;;27.88;33.63;94476.78;5051414;28;20045;-59
2022/06/18 05:57:47;;;;;;;6.68;5.60;;;;;;;26.28;35.75;94490.41;5052021;28;20055;-59
2022/06/18 06:00:16;;;;;;;8.00;5.53;;;;;;;27.55;33.88;94480.44;5051715;28;20045;-58
2022/06/18 06:02:44;;;;;;;6.55;5.30;;;;;;;28.70;32.03;94479.59;5052064;28;20053;-59
2022/06/18 06:05:11;;;;;;;6.85;5.47;;;;;;;28.84;31.77;94475.66;5051403;28;20059;-59
2022/06/18 06:07:38;;;;;;;7.38;5.50;;;;;;;29.02;30.92;94482.75;5051781;28;20291;-59
2022/06/18 06:13:06;;;;;;;6.23;5.40;;;;;;;29.25;31.25;94472.81;5051274;28;20501;-58
2022/06/18 06:15:33;;;;;;;6.45;4.97;;;;;;;30.78;28.72;94472.00;5051865;28;20044;-59
2022/06/18 06:17:59;;;;;;;7.13;5.35;;;;;;;31.04;28.16;94470.63;5051523;28;20037;-59
2022/06/18 06:20:30;;;;;;;5.70;5.03;;;;;;;29.72;30.13;94469.13;5037610;28;20071;-59
2022/06/18 06:22:57;;;;;;;6.88;5.82;;;;;;;29.01;31.28;94467.81;5051776;28;20044;-59
2022/06/18 06:25:24;;;;;;;5.97;5.37;;;;;;;29.82;30.36;94469.50;5050515;28;20110;-59
2022/06/18 06:27:51;;;;;;;15.00;5.97;;;;;;;31.18;28.35;94477.13;5040323;28;20041;-59
2022/06/18 06:30:18;;;;;;;17.10;6.22;;;;;;;31.05;28.34;94475.78;5048310;28;20393;-59
2022/06/18 06:32:45;;;;;;;6.13;4.70;;;;;;;32.92;26.01;94463.88;5049692;28;20504;-59
2022/06/18 06:35:12;;;;;;;6.03;4.90;;;;;;;32.04;26.78;94458.19;5027079;28;20049;-59
2022/06/18 06:37:40;;;;;;;5.03;4.50;;;;;;;31.90;26.81;94465.88;5031483;28;20491;-59
2022/06/18 06:40:08;;;;;;;8.25;4.88;;;;;;;32.93;25.97;94451.19;5030942;28;20055;-59
2022/06/18 06:42:43;;;;;;;5.03;4.35;;;;;;;33.95;23.77;94461.66;5031195;28;20041;-59
2022/06/18 06:45:22;;;;;;;5.10;4.60;;;;;;;33.61;24.56;94454.00;5022838;28;20044;-59
2022/06/18 06:47:49;;;;;;;5.38;4.32;;;;;;;35.44;23.38;94451.13;5041776;28;20049;-59
2022/06/18 06:50:17;;;;;;;4.97;4.20;;;;;;;36.24;22.38;94461.47;5030166;28;20044;-59
2022/06/18 06:52:45;;;;;;;4.82;3.80;;;;;;;34.34;23.14;94451.31;5025333;28;20051;-59
2022/06/18 06:58:03;;;;;;;9.60;3.97;;;;;;;34.18;24.88;94452.53;5030670;28;20142;-59
2022/06/18 07:00:32;;;;;;;6.40;4.20;;;;;;;34.42;24.13;94454.19;5030887;28;20038;-59
2022/06/18 07:02:59;;;;;;;7.63;4.50;;;;;;;33.92;24.86;94456.31;5030765;28;20262;-59
2022/06/18 07:05:27;;;;;;;5.55;4.32;;;;;;;35.87;22.65;94449.47;5030578;28;20049;-59
2022/06/18 07:07:54;;;;;;;8.18;4.30;;;;;;;35.09;23.66;94453.53;5030613;28;20049;-60
2022/06/18 07:10:21;;;;;;;6.05;4.00;;;;;;;36.62;21.60;94452.03;5029093;28;20049;-59
2022/06/18 07:12:48;;;;;;;5.57;3.70;;;;;;;36.07;21.94;94459.94;5030874;28;20037;-59
2022/06/18 07:15:15;;;;;;;4.43;3.80;;;;;;;35.91;22.27;94449.84;5029046;28;20059;-60
2022/06/18 07:17:42;;;;;;;4.07;3.55;;;;;;;34.56;23.91;94447.03;5030723;28;20052;-60
2022/06/18 07:20:13;;;;;;;4.55;3.60;;;;;;;33.98;24.64;94452.00;5029832;28;20156;-60
2022/06/18 07:22:40;;;;;;;4.90;3.70;;;;;;;35.70;23.30;94447.97;5030643;28;20059;-60
2022/06/18 07:25:09;;;;;;;7.40;4.00;;;;;;;34.25;24.10;94451.84;5029856;28;20065;-60
2022/06/18 07:27:36;;;;;;;12.70;4.00;;;;;;;35.03;22.52;94442.28;5038757;28;20510;-60
2022/06/18 07:30:05;;;;;;;4.93;3.30;;;;;;;36.73;19.38;94448.78;5038534;28;20124;-59
2022/06/18 07:32:32;;;;;;;3.75;3.10;;;;;;;36.09;20.71;94445.84;5030365;28;20765;-60
2022/06/18 07:34:59;;;;;;;4.25;3.35;;;;;;;36.30;20.40;94439.16;5038193;28;20041;-60
2022/06/18 07:37:28;;;;;;;5.45;3.30;;;;;;;36.44;19.48;94443.31;5030223;28;20056;-60
2022/06/18 07:39:55;;;;;;;4.93;3.30;;;;;;;36.37;20.65;94438.38;5038666;28;20053;-60
2022/06/18 07:42:23;;;;;;;4.18;3.20;;;;;;;38.22;18.72;94432.34;5032523;28;20063;-60
2022/06/18 07:44:50;;;;;;;5.40;3.08;;;;;;;38.51;17.88;94424.00;5035440;28;20084;-60
2022/06/18 07:47:18;;;;;;;4.20;3.38;;;;;;;37.86;18.18;94427.13;5031803;28;20041;-60
2022/06/18 07:49:46;;;;;;;8.65;3.10;;;;;;;36.95;18.91;94424.28;5050235;28;20041;-60
2022/06/18 07:52:14;;;;;;;4.07;3.43;;;;;;;37.86;19.08;94415.66;5049006;28;20048;-58
2022/06/18 07:54:42;;;;;;;3.78;3.10;;;;;;;38.79;17.04;94421.97;5049927;28;20044;-58
2022/06/18 07:57:17;;;;;;;4.50;3.60;;;;;;;36.56;19.05;94418.69;5049464;28;20041;-57
2022/06/18 07:59:44;;;;;;;4.72;3.00;;;;;;;37.77;18.07;94417.84;5049894;28;20057;-59
2022/06/18 08:02:11;;;;;;;3.95;3.40;;;;;;;39.11;17.07;94405.88;5049153;28;20053;-59
2022/06/18 08:04:38;;;;;;;5.67;3.40;;;;;;;38.10;17.63;94409.16;5049735;28;20041;-59
2022/06/18 08:07:04;;;;;;;3.88;3.05;;;;;;;37.29;18.25;94400.81;5049204;28;20072;-58
2022/06/18 08:09:32;;;;;;;4.25;3.33;;;;;;;37.63;17.91;94402.31;5049571;28;20041;-58
2022/06/18 08:12:01;;;;;;;6.38;5.20;;;;;;;37.66;17.72;94403.97;5049559;28;20394;-59
2022/06/18 08:14:28;;;;;;;4.28;3.58;;;;;;;39.03;17.04;94394.50;5049188;28;20041;-58
2022/06/18 08:16:55;;;;;;;4.33;3.03;;;;;;;39.49;16.14;94393.84;5049338;28;20080;-59
2022/06/18 08:19:22;;;;;;;5.35;3.53;;;;;;;39.15;16.37;94394.72;5037755;28;20044;-59
2022/06/18 08:21:49;;;;;;;4.78;3.30;;;;;;;38.91;16.11;94387.75;5045493;28;20040;-59
2022/06/18 08:24:21;;;;;;;5.45;3.28;;;;;;;38.84;15.54;94400.09;5049168;28;20079;-59
2022/06/18 08:26:50;;;;;;;4.50;3.38;;;;;;;38.58;16.33;94390.88;5049688;28;20072;-59
2022/06/18 08:29:21;;;;;;;4.20;3.07;;;;;;;39.81;15.39;94391.25;5035008;28;20036;-59
2022/06/18 08:31:48;;;;;;;4.70;3.25;;;;;;;39.98;15.66;94387.50;5049449;28;20051;-59
2022/06/18 08:34:15;;;;;;;4.90;3.28;;;;;;;39.60;15.26;94377.41;5048032;28;20061;-59
2022/06/18 08:36:49;;;;;;;5.20;3.40;;;;;;;38.01;15.86;94383.97;5049558;28;20045;-59
2022/06/18 08:39:16;;;;;;;4.53;3.30;;;;;;;38.68;15.99;94377.38;5047169;28;20055;-60
2022/06/18 08:42:20;;;;;;;4.73;3.17;;;;;;;39.57;15.34;94373.63;5048119;28;20322;-60
2022/06/18 08:45:05;;;;;;;5.95;3.05;;;;;;;39.92;15.31;94359.84;4995759;28;21564;-60
2022/06/18 08:48:05;;;;;;;7.18;3.20;;;;;;;40.18;14.37;94371.06;5024608;28;20041;-60
2022/06/18 08:50:48;;;;;;;5.63;2.90;;;;;;;39.19;15.43;94369.22;5024350;28;20402;-60
2022/06/18 08:53:34;;;;;;;4.28;3.20;;;;;;;40.13;14.96;94370.00;5027185;28;20045;-60
2022/06/18 08:56:14;;;;;;;6.00;3.10;;;;;;;40.02;15.28;94367.72;5037550;28;20049;-60
2022/06/18 08:59:16;;;;;;;4.25;2.90;;;;;;;39.40;15.77;94365.06;5022816;28;20582;-60
2022/06/18 09:01:50;;;;;;;6.22;3.25;;;;;;;38.85;15.63;94362.22;5012031;28;20621;-58
2022/06/18 09:04:32;;;;;;;4.13;3.00;;;;;;;39.79;15.77;94357.34;5023175;28;20041;-59
2022/06/18 09:07:31;;;;;;;3.92;2.70;;;;;;;39.15;15.66;94352.41;5032966;28;20049;-59
2022/06/18 09:10:07;;;;;;;4.30;2.90;;;;;;;38.82;15.54;94359.75;5046600;28;20041;-59
2022/06/18 09:12:55;;;;;;;3.58;2.83;;;;;;;39.19;15.77;94352.00;5051765;28;20154;-59
2022/06/18 09:15:29;;;;;;;5.22;3.13;;;;;;;37.87;16.82;94357.78;5052297;28;20033;-59
2022/06/18 09:18:07;;;;;;;4.28;2.80;;;;;;;38.91;15.84;94354.09;5052780;28;20057;-59
2022/06/18 09:20:43;;;;;;;5.05;3.00;;;;;;;40.18;15.12;94356.69;5017679;28;20560;-59
2022/06/18 09:23:28;;;;;;;4.37;3.10;;;;;;;39.41;15.25;94349.38;5032394;28;20057;-59
2022/06/18 09:25:58;;;;;;;4.30;3.10;;;;;;;39.97;14.89;94346.53;5018858;28;20060;-59
2022/06/18 09:28:37;;;;;;;4.70;3.08;;;;;;;40.63;14.78;94354.25;5032480;28;20044;-59
2022/06/18 09:31:39;;;;;;;4.43;2.80;;;;;;;39.74;14.74;94367.00;5032243;28;20041;-59
2022/06/18 09:34:41;;;;;;;4.45;2.88;;;;;;;40.16;15.29;94359.41;5032063;28;20494;-59
2022/06/18 09:37:34;;;;;;;4.30;2.87;;;;;;;41.77;13.54;94346.53;5032218;28;20053;-59
2022/06/18 09:40:03;;;;;;;4.95;2.70;;;;;;;41.30;13.77;94353.38;5032472;28;20164;-59
2022/06/18 09:42:36;;;;;;;4.82;3.05;;;;;;;40.05;14.25;94355.75;5039212;28;20080;-59
2022/06/18 09:45:13;;;;;;;4.45;2.60;;;;;;;39.67;14.07;94351.44;5031016;28;20072;-59
2022/06/18 09:47:46;;;;;;;4.10;2.40;;;;;;;39.78;13.97;94347.22;5032504;28;20075;-59
2022/06/18 09:50:27;;;;;;;5.17;2.53;;;;;;;39.13;14.19;94345.78;5031917;28;20050;-59
2022/06/18 09:53:20;;;;;;;6.55;2.50;;;;;;;39.40;14.72;94340.00;5032291;28;20047;-59
2022/06/18 09:55:58;;;;;;;4.57;2.50;;;;;;;39.98;14.43;94335.78;4988009;28;20393;-59
2022/06/18 09:58:32;;;;;;;5.18;2.42;;;;;;;41.55;13.06;94340.69;5035289;28;20037;-59
2022/06/18 10:01:01;;;;;;;5.03;2.60;;;;;;;40.17;14.04;94344.44;5051771;28;20079;-59
2022/06/18 10:09:38;;;;;;;5.00;2.20;;;;;;;39.43;13.68;94329.44;5039732;28;20058;-59
2022/06/18 10:12:48;;;;;;;7.80;2.00;;;;;;;40.02;12.76;94336.09;5028245;28;20205;-59
2022/06/18 10:15:17;;;;;;;4.93;2.42;;;;;;;40.71;13.37;94335.47;5033580;28;20053;-59
2022/06/18 10:18:02;;;;;;;5.17;2.60;;;;;;;38.28;15.58;94338.25;5031888;28;20047;-59
2022/06/18 10:20:29;;;;;;;6.05;2.80;;;;;;;39.26;14.58;94336.00;5029346;28;20809;-59
2022/06/18 10:23:33;;;;;;;5.45;2.90;;;;;;;39.19;14.95;94329.03;5036081;28;20046;-59
2022/06/18 10:26:12;;;;;;;5.18;2.70;;;;;;;40.38;14.86;94329.47;5038485;28;20472;-59
2022/06/18 10:29:10;;;;;;;6.28;2.78;;;;;;;39.37;14.63;94326.81;5035034;28;20563;-58
2022/06/18 10:31:40;;;;;;;6.60;2.10;;;;;;;38.90;13.08;94329.63;5023648;28;20049;-59
2022/06/18 10:34:24;;;;;;;5.63;2.03;;;;;;;38.40;13.81;94321.28;5030084;28;20045;-59
2022/06/18 10:37:06;;;;;;;4.05;2.50;;;;;;;37.99;14.37;94323.63;5025604;28;20042;-58
2022/06/18 10:39:57;;;;;;;3.75;2.60;;;;;;;37.54;14.68;94326.34;5050223;28;20051;-59
2022/06/18 10:42:45;;;;;;;5.47;2.50;;;;;;;38.51;14.27;94317.91;5050886;28;20041;-59
2022/06/18 10:45:21;;;;;;;5.07;2.07;;;;;;;37.11;14.15;94316.22;5050465;28;20060;-59
2022/06/18 10:47:51;;;;;;;8.73;2.40;;;;;;;37.68;14.54;94312.50;5050820;28;20045;-59
2022/06/18 10:50:20;;;;;;;4.38;2.30;;;;;;;36.99;15.08;94310.19;5050598;28;20049;-59
2022/06/18 10:52:57;;;;;;;4.72;2.30;;;;;;;37.03;15.44;94309.75;5050511;28;20048;-60
2022/06/18 10:55:24;;;;;;;4.97;2.25;;;;;;;35.90;15.46;94308.38;5050430;28;20059;-59
2022/06/18 10:57:51;;;;;;;5.57;2.20;;;;;;;36.07;16.01;94308.53;5050946;28;20386;-59
2022/06/18 11:00:23;;;;;;;5.10;2.55;;;;;;;34.63;17.25;94308.72;5050395;28;20486;-59
2022/06/18 11:02:53;;;;;;;4.40;2.33;;;;;;;34.10;17.76;94304.34;5050847;28;20079;-59
2022/06/18 11:05:30;;;;;;;6.22;2.47;;;;;;;34.48;17.26;94306.59;5049943;28;20351;-59
2022/06/18 11:08:00;;;;;;;4.32;2.30;;;;;;;34.83;16.41;94301.38;5050875;28;20123;-59
2022/06/18 11:10:37;;;;;;;7.87;2.70;;;;;;;34.59;16.96;94309.13;5050200;28;20064;-59
2022/06/18 11:13:16;;;;;;;5.85;2.50;;;;;;;34.84;17.32;94305.00;5050268;28;20053;-59
2022/06/18 11:15:43;;;;;;;6.32;2.92;;;;;;;34.69;18.37;94289.41;5049148;28;20049;-59
2022/06/18 11:18:16;;;;;;;10.35;2.97;;;;;;;33.98;18.36;94288.94;5047585;28;20121;-59
2022/06/18 11:21:01;;;;;;;8.05;2.70;;;;;;;33.84;18.28;94279.75;5029933;28;20059;-59
2022/06/18 11:23:28;;;;;;;5.70;2.37;;;;;;;33.68;18.20;94281.75;5037733;28;20558;-59
2022/06/18 11:26:17;;;;;;;10.50;2.58;;;;;;;33.29;17.88;94274.28;5037492;28;20053;-59
2022/06/18 11:28:48;;;;;;;5.68;2.38;;;;;;;32.95;18.50;94270.22;5037280;28;20056;-58
2022/06/18 11:31:42;;;;;;;9.75;2.50;;;;;;;33.24;18.43;94264.56;5030068;28;20045;-59
2022/06/18 11:34:20;;;;;;;7.32;2.53;;;;;;;33.79;17.57;94263.59;5029870;28;20409;-59
2022/06/18 11:36:58;;;;;;;8.30;2.50;;;;;;;33.60;19.26;94264.59;5029232;28;20077;-59
2022/06/18 11:39:51;;;;;;;7.32;2.30;;;;;;;33.91;16.60;94264.03;5029947;28;20041;-59
2022/06/18 11:42:31;;;;;;;6.70;2.63;;;;;;;33.47;18.39;94252.59;5029702;28;20088;-59
2022/06/18 11:45:21;;;;;;;11.40;2.53;;;;;;;33.19;17.89;94254.13;5029875;28;20048;-59
2022/06/18 11:47:54;;;;;;;8.15;2.40;;;;;;;33.82;18.74;94249.00;5016859;28;20049;-60
2022/06/18 11:50:29;;;;;;;8.80;2.60;;;;;;;33.83;18.28;94241.97;5011964;28;20042;-59
2022/06/18 11:53:10;;;;;;;7.55;2.63;;;;;;;33.06;19.11;94243.56;5030075;28;20359;-59
2022/06/18 11:55:43;;;;;;;12.27;2.80;;;;;;;32.95;18.98;94243.88;5032603;28;20056;-59
2022/06/18 11:58:24;;;;;;;10.07;2.95;;;;;;;32.58;19.86;94232.38;5031734;28;20064;-59
2022/06/18 12:00:58;;;;;;;9.80;3.10;;;;;;;33.10;19.51;94226.97;5038082;28;20045;-59
2022/06/18 12:03:38;;;;;;;13.00;3.03;;;;;;;33.39;19.79;94229.78;5032699;28;20048;-59
2022/06/18 12:06:20;;;;;;;16.70;3.45;;;;;;;33.95;19.54;94230.28;5032503;28;20050;-59
2022/06/18 12:09:10;;;;;;;12.13;3.30;;;;;;;33.27;19.41;94220.81;5032139;28;20048;-59
2022/06/18 12:12:08;;;;;;;12.68;3.30;;;;;;;33.08;19.69;94223.09;5034546;28;20041;-59
2022/06/18 12:14:59;;;;;;;13.75;3.10;;;;;;;32.06;20.10;94207.81;5035938;28;20403;-59